sensor_id;sensor_type;location;lat;lon;timestamp;P1;durP1;ratioP1;P2;durP2;ratioP2
56541;SDS011;42438;53.174;6.730;2022-12-07T00:02:16;6.90;;;1.73;;
56541;SDS011;42438;53.174;6.730;2022-12-07T00:04:48;7.25;;;1.70;;
56541;SDS011;42438;53.174;6.730;2022-12-07T00:07:19;5.03;;;1.75;;
56541;SDS011;42438;53.174;6.730;2022-12-07T00:09:50;3.47;;;1.63;;
56541;SDS011;42438;53.174;6.730;2022-12-07T00:12:20;8.70;;;1.60;;
56541;SDS011;42438;53.174;6.730;2022-12-07T00:14:51;6.82;;;1.92;;
56541;SDS011;42438;53.174;6.730;2022-12-07T00:17:22;5.45;;;1.50;;
56541;SDS011;42438;53.174;6.730;2022-12-07T00:19:52;8.35;;;1.85;;
56541;SDS011;42438;53.174;6.730;2022-12-07T00:22:23;7.00;;;1.60;;
56541;SDS011;42438;53.174;6.730;2022-12-07T00:24:54;5.70;;;1.20;;
56541;SDS011;42438;53.174;6.730;2022-12-07T00:27:24;7.50;;;2.22;;
56541;SDS011;42438;53.174;6.730;2022-12-07T00:29:55;4.93;;;1.38;;
56541;SDS011;42438;53.174;6.730;2022-12-07T00:32:26;4.30;;;1.50;;
56541;SDS011;42438;53.174;6.730;2022-12-07T00:34:56;9.15;;;1.40;;
56541;SDS011;42438;53.174;6.730;2022-12-07T00:37:27;7.95;;;1.40;;
56541;SDS011;42438;53.174;6.730;2022-12-07T00:39:58;8.10;;;1.35;;
56541;SDS011;42438;53.174;6.730;2022-12-07T00:42:28;8.73;;;2.00;;
56541;SDS011;42438;53.174;6.730;2022-12-07T00:44:59;8.90;;;1.80;;
56541;SDS011;42438;53.174;6.730;2022-12-07T00:47:29;11.43;;;1.70;;
56541;SDS011;42438;53.174;6.730;2022-12-07T00:50:00;7.55;;;1.52;;
56541;SDS011;42438;53.174;6.730;2022-12-07T00:52:31;9.00;;;2.05;;
56541;SDS011;42438;53.174;6.730;2022-12-07T00:55:01;9.00;;;2.10;;
56541;SDS011;42438;53.174;6.730;2022-12-07T00:57:32;9.98;;;2.28;;
56541;SDS011;42438;53.174;6.730;2022-12-07T01:00:03;10.13;;;1.90;;
56541;SDS011;42438;53.174;6.730;2022-12-07T01:02:34;5.70;;;1.52;;
56541;SDS011;42438;53.174;6.730;2022-12-07T01:05:05;5.95;;;1.98;;
56541;SDS011;42438;53.174;6.730;2022-12-07T01:07:37;7.05;;;1.63;;
56541;SDS011;42438;53.174;6.730;2022-12-07T01:10:08;7.95;;;1.75;;
56541;SDS011;42438;53.174;6.730;2022-12-07T01:12:39;6.25;;;1.60;;
56541;SDS011;42438;53.174;6.730;2022-12-07T01:15:10;5.22;;;1.63;;
56541;SDS011;42438;53.174;6.730;2022-12-07T01:17:41;6.22;;;1.30;;
56541;SDS011;42438;53.174;6.730;2022-12-07T01:20:12;5.47;;;1.05;;
56541;SDS011;42438;53.174;6.730;2022-12-07T01:22:43;9.80;;;0.95;;
56541;SDS011;42438;53.174;6.730;2022-12-07T01:25:14;7.13;;;2.00;;
56541;SDS011;42438;53.174;6.730;2022-12-07T01:27:45;7.97;;;1.40;;
56541;SDS011;42438;53.174;6.730;2022-12-07T01:30:15;4.97;;;0.88;;
56541;SDS011;42438;53.174;6.730;2022-12-07T01:32:46;4.95;;;0.82;;
56541;SDS011;42438;53.174;6.730;2022-12-07T01:35:17;6.68;;;1.30;;
56541;SDS011;42438;53.174;6.730;2022-12-07T01:37:47;14.63;;;1.50;;
56541;SDS011;42438;53.174;6.730;2022-12-07T01:40:18;3.33;;;1.02;;
56541;SDS011;42438;53.174;6.730;2022-12-07T01:42:49;9.85;;;1.40;;
56541;SDS011;42438;53.174;6.730;2022-12-07T01:45:37;8.27;;;1.40;;
56541;SDS011;42438;53.174;6.730;2022-12-07T01:48:09;3.67;;;1.10;;
56541;SDS011;42438;53.174;6.730;2022-12-07T01:50:43;3.03;;;1.15;;
56541;SDS011;42438;53.174;6.730;2022-12-07T01:53:15;3.85;;;0.70;;
56541;SDS011;42438;53.174;6.730;2022-12-07T01:55:48;2.58;;;0.88;;
56541;SDS011;42438;53.174;6.730;2022-12-07T01:58:21;6.28;;;1.13;;
56541;SDS011;42438;53.174;6.730;2022-12-07T02:00:53;7.70;;;2.08;;
56541;SDS011;42438;53.174;6.730;2022-12-07T02:03:27;8.32;;;1.08;;
56541;SDS011;42438;53.174;6.730;2022-12-07T02:06:04;6.53;;;1.25;;
56541;SDS011;42438;53.174;6.730;2022-12-07T02:08:37;4.88;;;0.80;;
56541;SDS011;42438;53.174;6.730;2022-12-07T02:11:08;4.32;;;0.90;;
56541;SDS011;42438;53.174;6.730;2022-12-07T02:13:40;2.25;;;0.88;;
56541;SDS011;42438;53.174;6.730;2022-12-07T02:19:26;4.00;;;1.05;;
56541;SDS011;42438;53.174;6.730;2022-12-07T02:27:51;4.60;;;1.25;;
56541;SDS011;42438;53.174;6.730;2022-12-07T02:30:32;4.53;;;0.95;;
56541;SDS011;42438;53.174;6.730;2022-12-07T02:35:37;3.78;;;0.90;;
56541;SDS011;42438;53.174;6.730;2022-12-07T02:38:13;4.93;;;1.20;;
56541;SDS011;42438;53.174;6.730;2022-12-07T02:44:13;6.72;;;1.38;;
56541;SDS011;42438;53.174;6.730;2022-12-07T02:46:49;7.15;;;1.48;;
56541;SDS011;42438;53.174;6.730;2022-12-07T02:49:35;6.13;;;1.48;;
56541;SDS011;42438;53.174;6.730;2022-12-07T02:52:08;6.22;;;1.70;;
56541;SDS011;42438;53.174;6.730;2022-12-07T02:54:38;6.80;;;1.38;;
56541;SDS011;42438;53.174;6.730;2022-12-07T02:57:21;8.73;;;1.65;;
56541;SDS011;42438;53.174;6.730;2022-12-07T03:00:12;5.20;;;1.45;;
56541;SDS011;42438;53.174;6.730;2022-12-07T03:05:59;5.03;;;1.42;;
56541;SDS011;42438;53.174;6.730;2022-12-07T03:11:41;7.40;;;1.25;;
56541;SDS011;42438;53.174;6.730;2022-12-07T03:14:31;6.05;;;1.70;;
56541;SDS011;42438;53.174;6.730;2022-12-07T03:17:19;9.65;;;1.83;;
56541;SDS011;42438;53.174;6.730;2022-12-07T03:19:56;7.65;;;1.23;;
56541;SDS011;42438;53.174;6.730;2022-12-07T03:22:29;9.27;;;2.10;;
56541;SDS011;42438;53.174;6.730;2022-12-07T03:25:04;3.72;;;1.00;;
56541;SDS011;42438;53.174;6.730;2022-12-07T03:30:48;5.40;;;0.90;;
56541;SDS011;42438;53.174;6.730;2022-12-07T03:33:34;5.43;;;1.10;;
56541;SDS011;42438;53.174;6.730;2022-12-07T03:36:55;5.25;;;1.50;;
56541;SDS011;42438;53.174;6.730;2022-12-07T03:39:17;8.82;;;2.25;;
56541;SDS011;42438;53.174;6.730;2022-12-07T03:41:56;7.00;;;1.33;;
56541;SDS011;42438;53.174;6.730;2022-12-07T03:44:29;6.45;;;1.30;;
56541;SDS011;42438;53.174;6.730;2022-12-07T03:47:04;5.28;;;0.90;;
56541;SDS011;42438;53.174;6.730;2022-12-07T03:49:44;4.97;;;1.17;;
56541;SDS011;42438;53.174;6.730;2022-12-07T03:52:28;5.72;;;1.00;;
56541;SDS011;42438;53.174;6.730;2022-12-07T03:55:11;6.57;;;1.33;;
56541;SDS011;42438;53.174;6.730;2022-12-07T03:57:49;5.10;;;1.15;;
56541;SDS011;42438;53.174;6.730;2022-12-07T04:00:23;6.47;;;1.45;;
56541;SDS011;42438;53.174;6.730;2022-12-07T04:02:54;1.98;;;0.90;;
56541;SDS011;42438;53.174;6.730;2022-12-07T04:05:26;2.22;;;0.80;;
56541;SDS011;42438;53.174;6.730;2022-12-07T04:07:56;6.28;;;0.70;;
56541;SDS011;42438;53.174;6.730;2022-12-07T04:10:27;3.38;;;0.85;;
56541;SDS011;42438;53.174;6.730;2022-12-07T04:12:58;6.43;;;1.30;;
56541;SDS011;42438;53.174;6.730;2022-12-07T04:15:28;3.08;;;0.70;;
56541;SDS011;42438;53.174;6.730;2022-12-07T04:17:59;2.50;;;0.70;;
56541;SDS011;42438;53.174;6.730;2022-12-07T04:20:29;4.90;;;0.82;;
56541;SDS011;42438;53.174;6.730;2022-12-07T04:23:00;2.95;;;0.70;;
56541;SDS011;42438;53.174;6.730;2022-12-07T04:25:31;5.85;;;1.30;;
56541;SDS011;42438;53.174;6.730;2022-12-07T04:28:01;4.50;;;0.90;;
56541;SDS011;42438;53.174;6.730;2022-12-07T04:30:32;4.63;;;0.90;;
56541;SDS011;42438;53.174;6.730;2022-12-07T04:33:03;3.10;;;0.90;;
56541;SDS011;42438;53.174;6.730;2022-12-07T04:35:33;5.30;;;1.92;;
56541;SDS011;42438;53.174;6.730;2022-12-07T04:38:04;3.75;;;0.85;;
56541;SDS011;42438;53.174;6.730;2022-12-07T04:40:35;3.42;;;0.77;;
56541;SDS011;42438;53.174;6.730;2022-12-07T04:43:05;4.05;;;0.98;;
56541;SDS011;42438;53.174;6.730;2022-12-07T04:45:36;3.28;;;0.70;;
56541;SDS011;42438;53.174;6.730;2022-12-07T04:48:07;2.08;;;0.65;;
56541;SDS011;42438;53.174;6.730;2022-12-07T04:50:37;3.67;;;0.70;;
56541;SDS011;42438;53.174;6.730;2022-12-07T04:53:08;2.42;;;0.68;;
56541;SDS011;42438;53.174;6.730;2022-12-07T04:55:39;7.20;;;1.13;;
56541;SDS011;42438;53.174;6.730;2022-12-07T04:58:09;5.10;;;1.10;;
56541;SDS011;42438;53.174;6.730;2022-12-07T05:00:40;3.85;;;1.25;;
56541;SDS011;42438;53.174;6.730;2022-12-07T05:03:11;7.15;;;1.27;;
56541;SDS011;42438;53.174;6.730;2022-12-07T05:05:42;2.72;;;1.00;;
56541;SDS011;42438;53.174;6.730;2022-12-07T05:08:12;4.60;;;0.80;;
56541;SDS011;42438;53.174;6.730;2022-12-07T05:10:43;5.60;;;1.20;;
56541;SDS011;42438;53.174;6.730;2022-12-07T05:13:14;3.85;;;0.90;;
56541;SDS011;42438;53.174;6.730;2022-12-07T05:15:46;3.00;;;0.70;;
56541;SDS011;42438;53.174;6.730;2022-12-07T05:18:17;4.78;;;0.90;;
56541;SDS011;42438;53.174;6.730;2022-12-07T05:20:48;3.75;;;0.73;;
56541;SDS011;42438;53.174;6.730;2022-12-07T05:23:19;3.53;;;0.80;;
56541;SDS011;42438;53.174;6.730;2022-12-07T05:25:50;2.00;;;0.55;;
56541;SDS011;42438;53.174;6.730;2022-12-07T05:28:20;3.92;;;0.85;;
56541;SDS011;42438;53.174;6.730;2022-12-07T05:30:51;4.88;;;1.02;;
56541;SDS011;42438;53.174;6.730;2022-12-07T05:33:22;3.63;;;0.80;;
56541;SDS011;42438;53.174;6.730;2022-12-07T05:35:52;4.57;;;1.05;;
56541;SDS011;42438;53.174;6.730;2022-12-07T05:38:23;4.75;;;1.27;;
56541;SDS011;42438;53.174;6.730;2022-12-07T05:40:55;5.50;;;1.20;;
56541;SDS011;42438;53.174;6.730;2022-12-07T05:43:25;5.60;;;1.15;;
56541;SDS011;42438;53.174;6.730;2022-12-07T05:45:56;7.78;;;2.15;;
56541;SDS011;42438;53.174;6.730;2022-12-07T05:48:27;8.30;;;1.90;;
56541;SDS011;42438;53.174;6.730;2022-12-07T05:50:57;12.80;;;2.22;;
56541;SDS011;42438;53.174;6.730;2022-12-07T05:53:28;5.28;;;1.80;;
56541;SDS011;42438;53.174;6.730;2022-12-07T05:55:59;4.32;;;1.45;;
56541;SDS011;42438;53.174;6.730;2022-12-07T05:58:29;6.70;;;1.50;;
56541;SDS011;42438;53.174;6.730;2022-12-07T06:01:19;7.68;;;1.52;;
56541;SDS011;42438;53.174;6.730;2022-12-07T06:03:49;7.93;;;1.40;;
56541;SDS011;42438;53.174;6.730;2022-12-07T06:06:20;5.13;;;1.30;;
56541;SDS011;42438;53.174;6.730;2022-12-07T06:08:51;6.47;;;1.52;;
56541;SDS011;42438;53.174;6.730;2022-12-07T06:11:21;5.88;;;1.52;;
56541;SDS011;42438;53.174;6.730;2022-12-07T06:14:10;4.93;;;2.05;;
56541;SDS011;42438;53.174;6.730;2022-12-07T06:16:41;9.45;;;1.65;;
56541;SDS011;42438;53.174;6.730;2022-12-07T06:19:12;6.03;;;1.90;;
56541;SDS011;42438;53.174;6.730;2022-12-07T06:21:43;10.90;;;1.88;;
56541;SDS011;42438;53.174;6.730;2022-12-07T06:24:14;3.95;;;1.13;;
56541;SDS011;42438;53.174;6.730;2022-12-07T06:26:46;6.90;;;1.63;;
56541;SDS011;42438;53.174;6.730;2022-12-07T06:29:17;8.73;;;1.52;;
56541;SDS011;42438;53.174;6.730;2022-12-07T06:31:48;5.55;;;1.20;;
56541;SDS011;42438;53.174;6.730;2022-12-07T06:34:20;5.15;;;1.10;;
56541;SDS011;42438;53.174;6.730;2022-12-07T06:36:53;2.40;;;1.10;;
56541;SDS011;42438;53.174;6.730;2022-12-07T06:39:25;5.72;;;1.50;;
56541;SDS011;42438;53.174;6.730;2022-12-07T06:41:57;12.57;;;1.67;;
56541;SDS011;42438;53.174;6.730;2022-12-07T06:44:28;6.55;;;1.65;;
56541;SDS011;42438;53.174;6.730;2022-12-07T06:46:59;7.88;;;2.17;;
56541;SDS011;42438;53.174;6.730;2022-12-07T06:49:29;2.55;;;0.95;;
56541;SDS011;42438;53.174;6.730;2022-12-07T06:52:00;6.03;;;1.45;;
56541;SDS011;42438;53.174;6.730;2022-12-07T06:54:31;5.38;;;1.13;;
56541;SDS011;42438;53.174;6.730;2022-12-07T06:57:01;5.85;;;1.20;;
56541;SDS011;42438;53.174;6.730;2022-12-07T06:59:32;7.85;;;1.30;;
56541;SDS011;42438;53.174;6.730;2022-12-07T07:02:03;4.07;;;1.00;;
56541;SDS011;42438;53.174;6.730;2022-12-07T07:04:33;6.78;;;1.35;;
56541;SDS011;42438;53.174;6.730;2022-12-07T07:07:04;11.07;;;1.70;;
56541;SDS011;42438;53.174;6.730;2022-12-07T07:09:35;5.32;;;1.38;;
56541;SDS011;42438;53.174;6.730;2022-12-07T07:12:05;5.88;;;1.45;;
56541;SDS011;42438;53.174;6.730;2022-12-07T07:14:36;6.00;;;1.90;;
56541;SDS011;42438;53.174;6.730;2022-12-07T07:17:07;8.35;;;2.85;;
56541;SDS011;42438;53.174;6.730;2022-12-07T07:19:38;9.80;;;3.80;;
56541;SDS011;42438;53.174;6.730;2022-12-07T07:22:08;4.03;;;1.25;;
56541;SDS011;42438;53.174;6.730;2022-12-07T07:24:39;2.53;;;1.15;;
56541;SDS011;42438;53.174;6.730;2022-12-07T07:27:10;3.17;;;0.85;;
56541;SDS011;42438;53.174;6.730;2022-12-07T07:29:41;2.28;;;1.00;;
56541;SDS011;42438;53.174;6.730;2022-12-07T07:32:12;1.45;;;0.80;;
56541;SDS011;42438;53.174;6.730;2022-12-07T07:34:42;4.47;;;1.25;;
56541;SDS011;42438;53.174;6.730;2022-12-07T07:37:13;3.03;;;1.08;;
56541;SDS011;42438;53.174;6.730;2022-12-07T07:39:44;6.40;;;1.27;;
56541;SDS011;42438;53.174;6.730;2022-12-07T07:42:14;3.88;;;1.13;;
56541;SDS011;42438;53.174;6.730;2022-12-07T07:44:46;10.27;;;1.85;;
56541;SDS011;42438;53.174;6.730;2022-12-07T07:47:17;3.72;;;1.00;;
56541;SDS011;42438;53.174;6.730;2022-12-07T07:49:48;5.72;;;1.08;;
56541;SDS011;42438;53.174;6.730;2022-12-07T07:52:18;6.15;;;1.70;;
56541;SDS011;42438;53.174;6.730;2022-12-07T07:54:49;5.28;;;0.85;;
56541;SDS011;42438;53.174;6.730;2022-12-07T07:57:20;4.70;;;0.95;;
56541;SDS011;42438;53.174;6.730;2022-12-07T07:59:50;4.07;;;0.70;;
56541;SDS011;42438;53.174;6.730;2022-12-07T08:02:21;4.30;;;1.80;;
56541;SDS011;42438;53.174;6.730;2022-12-07T08:04:52;6.82;;;1.30;;
56541;SDS011;42438;53.174;6.730;2022-12-07T08:07:23;2.78;;;0.88;;
56541;SDS011;42438;53.174;6.730;2022-12-07T08:09:53;3.83;;;1.20;;
56541;SDS011;42438;53.174;6.730;2022-12-07T08:12:24;8.55;;;1.83;;
56541;SDS011;42438;53.174;6.730;2022-12-07T08:14:55;6.03;;;1.20;;
56541;SDS011;42438;53.174;6.730;2022-12-07T08:17:25;8.98;;;1.63;;
56541;SDS011;42438;53.174;6.730;2022-12-07T08:19:57;7.20;;;2.60;;
56541;SDS011;42438;53.174;6.730;2022-12-07T08:22:27;6.70;;;1.50;;
56541;SDS011;42438;53.174;6.730;2022-12-07T08:24:58;4.70;;;2.03;;
56541;SDS011;42438;53.174;6.730;2022-12-07T08:27:29;9.18;;;1.95;;
56541;SDS011;42438;53.174;6.730;2022-12-07T08:29:59;4.30;;;1.73;;
56541;SDS011;42438;53.174;6.730;2022-12-07T08:32:30;6.78;;;1.55;;
56541;SDS011;42438;53.174;6.730;2022-12-07T08:35:01;5.00;;;1.63;;
56541;SDS011;42438;53.174;6.730;2022-12-07T08:37:31;7.40;;;1.77;;
56541;SDS011;42438;53.174;6.730;2022-12-07T08:40:03;10.63;;;1.98;;
56541;SDS011;42438;53.174;6.730;2022-12-07T08:42:35;6.53;;;2.15;;
56541;SDS011;42438;53.174;6.730;2022-12-07T08:45:11;7.53;;;1.83;;
56541;SDS011;42438;53.174;6.730;2022-12-07T08:47:45;8.27;;;1.90;;
56541;SDS011;42438;53.174;6.730;2022-12-07T08:50:25;5.20;;;1.75;;
56541;SDS011;42438;53.174;6.730;2022-12-07T08:52:57;5.57;;;2.05;;
56541;SDS011;42438;53.174;6.730;2022-12-07T08:55:28;7.13;;;1.60;;
56541;SDS011;42438;53.174;6.730;2022-12-07T08:57:59;9.98;;;1.60;;
56541;SDS011;42438;53.174;6.730;2022-12-07T09:00:32;7.80;;;1.88;;
56541;SDS011;42438;53.174;6.730;2022-12-07T09:03:03;6.00;;;1.48;;
56541;SDS011;42438;53.174;6.730;2022-12-07T09:05:33;6.13;;;1.70;;
56541;SDS011;42438;53.174;6.730;2022-12-07T09:08:04;9.00;;;1.55;;
56541;SDS011;42438;53.174;6.730;2022-12-07T09:10:36;9.13;;;2.03;;
56541;SDS011;42438;53.174;6.730;2022-12-07T09:13:07;13.20;;;1.95;;
56541;SDS011;42438;53.174;6.730;2022-12-07T09:15:37;8.77;;;1.73;;
56541;SDS011;42438;53.174;6.730;2022-12-07T09:18:08;7.25;;;2.30;;
56541;SDS011;42438;53.174;6.730;2022-12-07T09:20:39;5.55;;;1.70;;
56541;SDS011;42438;53.174;6.730;2022-12-07T09:23:10;8.27;;;1.75;;
56541;SDS011;42438;53.174;6.730;2022-12-07T09:25:40;8.43;;;2.10;;
56541;SDS011;42438;53.174;6.730;2022-12-07T09:28:11;10.15;;;2.53;;
56541;SDS011;42438;53.174;6.730;2022-12-07T09:30:48;11.20;;;3.17;;
56541;SDS011;42438;53.174;6.730;2022-12-07T09:33:19;12.07;;;2.50;;
56541;SDS011;42438;53.174;6.730;2022-12-07T09:35:50;17.17;;;2.88;;
56541;SDS011;42438;53.174;6.730;2022-12-07T09:38:22;9.23;;;3.05;;
56541;SDS011;42438;53.174;6.730;2022-12-07T09:40:54;6.95;;;2.05;;
56541;SDS011;42438;53.174;6.730;2022-12-07T09:43:25;4.20;;;2.15;;
56541;SDS011;42438;53.174;6.730;2022-12-07T09:45:56;9.75;;;2.50;;
56541;SDS011;42438;53.174;6.730;2022-12-07T09:48:31;8.40;;;2.03;;
56541;SDS011;42438;53.174;6.730;2022-12-07T09:51:13;8.93;;;2.50;;
56541;SDS011;42438;53.174;6.730;2022-12-07T09:53:45;9.18;;;2.45;;
56541;SDS011;42438;53.174;6.730;2022-12-07T09:56:17;7.63;;;2.55;;
56541;SDS011;42438;53.174;6.730;2022-12-07T09:58:49;6.80;;;2.47;;
56541;SDS011;42438;53.174;6.730;2022-12-07T10:01:24;9.00;;;2.10;;
56541;SDS011;42438;53.174;6.730;2022-12-07T10:04:20;7.18;;;2.22;;
56541;SDS011;42438;53.174;6.730;2022-12-07T10:06:51;5.00;;;2.03;;
56541;SDS011;42438;53.174;6.730;2022-12-07T10:09:22;7.00;;;2.13;;
56541;SDS011;42438;53.174;6.730;2022-12-07T10:12:05;9.40;;;1.80;;
56541;SDS011;42438;53.174;6.730;2022-12-07T10:15:21;7.18;;;1.98;;
56541;SDS011;42438;53.174;6.730;2022-12-07T10:17:36;6.78;;;1.80;;
56541;SDS011;42438;53.174;6.730;2022-12-07T10:20:24;9.98;;;2.10;;
56541;SDS011;42438;53.174;6.730;2022-12-07T10:22:57;3.40;;;1.50;;
56541;SDS011;42438;53.174;6.730;2022-12-07T10:25:30;9.52;;;1.60;;
56541;SDS011;42438;53.174;6.730;2022-12-07T10:33:29;4.65;;;1.60;;
56541;SDS011;42438;53.174;6.730;2022-12-07T10:36:22;9.10;;;2.97;;
56541;SDS011;42438;53.174;6.730;2022-12-07T10:44:30;5.85;;;1.80;;
56541;SDS011;42438;53.174;6.730;2022-12-07T10:47:14;7.30;;;1.90;;
56541;SDS011;42438;53.174;6.730;2022-12-07T10:55:41;8.73;;;2.03;;
56541;SDS011;42438;53.174;6.730;2022-12-07T11:03:29;5.65;;;1.83;;
56541;SDS011;42438;53.174;6.730;2022-12-07T11:14:37;5.43;;;1.52;;
56541;SDS011;42438;53.174;6.730;2022-12-07T11:17:18;3.05;;;0.77;;
56541;SDS011;42438;53.174;6.730;2022-12-07T11:34:11;4.95;;;1.33;;
56541;SDS011;42438;53.174;6.730;2022-12-07T11:36:52;6.55;;;1.17;;
56541;SDS011;42438;53.174;6.730;2022-12-07T11:39:26;5.15;;;1.38;;
56541;SDS011;42438;53.174;6.730;2022-12-07T11:42:09;3.42;;;1.10;;
56541;SDS011;42438;53.174;6.730;2022-12-07T11:48:02;6.70;;;1.33;;
56541;SDS011;42438;53.174;6.730;2022-12-07T11:50:53;9.90;;;2.15;;
56541;SDS011;42438;53.174;6.730;2022-12-07T11:53:46;9.18;;;2.40;;
56541;SDS011;42438;53.174;6.730;2022-12-07T11:56:23;6.78;;;1.63;;
56541;SDS011;42438;53.174;6.730;2022-12-07T11:58:58;8.23;;;1.88;;
56541;SDS011;42438;53.174;6.730;2022-12-07T12:06:42;11.27;;;1.90;;
56541;SDS011;42438;53.174;6.730;2022-12-07T12:20:29;6.95;;;2.20;;
56541;SDS011;42438;53.174;6.730;2022-12-07T12:26:53;8.82;;;2.30;;
56541;SDS011;42438;53.174;6.730;2022-12-07T12:29:32;6.47;;;1.70;;
56541;SDS011;42438;53.174;6.730;2022-12-07T12:32:07;7.00;;;1.92;;
56541;SDS011;42438;53.174;6.730;2022-12-07T12:42:55;8.02;;;3.25;;
56541;SDS011;42438;53.174;6.730;2022-12-07T12:45:28;5.18;;;2.20;;
56541;SDS011;42438;53.174;6.730;2022-12-07T12:48:04;6.05;;;2.15;;
56541;SDS011;42438;53.174;6.730;2022-12-07T12:54:10;7.93;;;2.40;;
56541;SDS011;42438;53.174;6.730;2022-12-07T13:02:35;6.32;;;1.70;;
56541;SDS011;42438;53.174;6.730;2022-12-07T13:28:51;4.53;;;1.40;;
56541;SDS011;42438;53.174;6.730;2022-12-07T13:39:54;2.47;;;1.02;;
56541;SDS011;42438;53.174;6.730;2022-12-07T13:45:17;2.60;;;1.30;;
56541;SDS011;42438;53.174;6.730;2022-12-07T13:50:54;4.85;;;1.20;;
56541;SDS011;42438;53.174;6.730;2022-12-07T13:53:26;5.43;;;1.13;;
56541;SDS011;42438;53.174;6.730;2022-12-07T13:56:03;6.03;;;1.70;;
56541;SDS011;42438;53.174;6.730;2022-12-07T13:58:34;2.63;;;1.33;;
56541;SDS011;42438;53.174;6.730;2022-12-07T14:01:05;3.47;;;1.25;;
56541;SDS011;42438;53.174;6.730;2022-12-07T14:03:36;4.78;;;1.45;;
56541;SDS011;42438;53.174;6.730;2022-12-07T14:06:16;2.95;;;1.13;;
56541;SDS011;42438;53.174;6.730;2022-12-07T14:11:53;1.30;;;0.80;;
56541;SDS011;42438;53.174;6.730;2022-12-07T14:14:26;3.05;;;1.05;;
56541;SDS011;42438;53.174;6.730;2022-12-07T14:20:00;3.65;;;1.23;;
56541;SDS011;42438;53.174;6.730;2022-12-07T14:22:35;4.05;;;1.40;;
56541;SDS011;42438;53.174;6.730;2022-12-07T14:25:18;4.25;;;1.10;;
56541;SDS011;42438;53.174;6.730;2022-12-07T14:30:30;5.57;;;1.27;;
56541;SDS011;42438;53.174;6.730;2022-12-07T14:33:03;3.10;;;0.90;;
56541;SDS011;42438;53.174;6.730;2022-12-07T14:35:36;3.00;;;1.00;;
56541;SDS011;42438;53.174;6.730;2022-12-07T14:38:10;3.28;;;1.02;;
56541;SDS011;42438;53.174;6.730;2022-12-07T14:40:41;3.67;;;1.08;;
56541;SDS011;42438;53.174;6.730;2022-12-07T14:43:12;2.60;;;1.17;;
56541;SDS011;42438;53.174;6.730;2022-12-07T14:45:46;3.78;;;1.15;;
56541;SDS011;42438;53.174;6.730;2022-12-07T14:48:16;4.82;;;2.00;;
56541;SDS011;42438;53.174;6.730;2022-12-07T14:50:51;3.03;;;1.25;;
56541;SDS011;42438;53.174;6.730;2022-12-07T14:53:25;3.25;;;1.25;;
56541;SDS011;42438;53.174;6.730;2022-12-07T14:56:05;2.95;;;1.00;;
56541;SDS011;42438;53.174;6.730;2022-12-07T14:58:36;3.75;;;1.20;;
56541;SDS011;42438;53.174;6.730;2022-12-07T15:01:07;3.05;;;1.30;;
56541;SDS011;42438;53.174;6.730;2022-12-07T15:03:38;5.93;;;1.55;;
56541;SDS011;42438;53.174;6.730;2022-12-07T15:06:10;4.45;;;1.25;;
56541;SDS011;42438;53.174;6.730;2022-12-07T15:08:44;5.95;;;1.42;;
56541;SDS011;42438;53.174;6.730;2022-12-07T15:11:15;5.45;;;1.88;;
56541;SDS011;42438;53.174;6.730;2022-12-07T15:13:47;5.60;;;1.33;;
56541;SDS011;42438;53.174;6.730;2022-12-07T15:16:36;5.18;;;1.10;;
56541;SDS011;42438;53.174;6.730;2022-12-07T15:19:17;3.08;;;1.25;;
56541;SDS011;42438;53.174;6.730;2022-12-07T15:21:49;3.78;;;1.23;;
56541;SDS011;42438;53.174;6.730;2022-12-07T15:24:20;5.90;;;1.50;;
56541;SDS011;42438;53.174;6.730;2022-12-07T15:26:51;4.38;;;1.63;;
56541;SDS011;42438;53.174;6.730;2022-12-07T15:29:22;4.30;;;1.35;;
56541;SDS011;42438;53.174;6.730;2022-12-07T15:31:53;6.13;;;1.60;;
56541;SDS011;42438;53.174;6.730;2022-12-07T15:34:25;2.83;;;1.48;;
56541;SDS011;42438;53.174;6.730;2022-12-07T15:36:58;7.15;;;1.63;;
56541;SDS011;42438;53.174;6.730;2022-12-07T15:39:29;7.15;;;1.60;;
56541;SDS011;42438;53.174;6.730;2022-12-07T15:41:59;4.85;;;1.50;;
56541;SDS011;42438;53.174;6.730;2022-12-07T15:44:30;6.85;;;2.05;;
56541;SDS011;42438;53.174;6.730;2022-12-07T15:47:19;7.10;;;1.50;;
56541;SDS011;42438;53.174;6.730;2022-12-07T15:49:50;5.38;;;1.40;;
56541;SDS011;42438;53.174;6.730;2022-12-07T15:52:21;4.25;;;1.27;;
56541;SDS011;42438;53.174;6.730;2022-12-07T15:54:52;6.28;;;1.80;;
56541;SDS011;42438;53.174;6.730;2022-12-07T15:57:22;5.65;;;1.55;;
56541;SDS011;42438;53.174;6.730;2022-12-07T15:59:53;4.63;;;1.48;;
56541;SDS011;42438;53.174;6.730;2022-12-07T16:02:24;7.50;;;1.30;;
56541;SDS011;42438;53.174;6.730;2022-12-07T16:04:55;4.50;;;1.20;;
56541;SDS011;42438;53.174;6.730;2022-12-07T16:07:25;2.60;;;1.27;;
56541;SDS011;42438;53.174;6.730;2022-12-07T16:09:56;5.57;;;1.23;;
56541;SDS011;42438;53.174;6.730;2022-12-07T16:12:27;4.95;;;2.25;;
56541;SDS011;42438;53.174;6.730;2022-12-07T16:14:58;6.35;;;2.03;;
56541;SDS011;42438;53.174;6.730;2022-12-07T16:17:28;6.70;;;1.73;;
56541;SDS011;42438;53.174;6.730;2022-12-07T16:19:59;5.22;;;1.65;;
56541;SDS011;42438;53.174;6.730;2022-12-07T16:22:30;4.47;;;1.60;;
56541;SDS011;42438;53.174;6.730;2022-12-07T16:25:01;7.60;;;1.77;;
56541;SDS011;42438;53.174;6.730;2022-12-07T16:27:32;5.97;;;1.83;;
56541;SDS011;42438;53.174;6.730;2022-12-07T16:30:04;5.13;;;1.50;;
56541;SDS011;42438;53.174;6.730;2022-12-07T16:32:35;5.20;;;1.80;;
56541;SDS011;42438;53.174;6.730;2022-12-07T16:35:06;4.97;;;2.00;;
56541;SDS011;42438;53.174;6.730;2022-12-07T16:37:37;6.38;;;1.60;;
56541;SDS011;42438;53.174;6.730;2022-12-07T16:40:08;5.22;;;2.00;;
56541;SDS011;42438;53.174;6.730;2022-12-07T16:42:39;5.55;;;1.80;;
56541;SDS011;42438;53.174;6.730;2022-12-07T16:45:10;2.92;;;1.27;;
56541;SDS011;42438;53.174;6.730;2022-12-07T16:47:41;4.43;;;1.83;;
56541;SDS011;42438;53.174;6.730;2022-12-07T16:50:11;8.68;;;1.90;;
56541;SDS011;42438;53.174;6.730;2022-12-07T16:52:42;6.10;;;1.70;;
56541;SDS011;42438;53.174;6.730;2022-12-07T16:55:12;4.93;;;1.85;;
56541;SDS011;42438;53.174;6.730;2022-12-07T16:57:43;3.88;;;1.10;;
56541;SDS011;42438;53.174;6.730;2022-12-07T17:00:14;6.63;;;1.88;;
56541;SDS011;42438;53.174;6.730;2022-12-07T17:02:45;3.40;;;1.08;;
56541;SDS011;42438;53.174;6.730;2022-12-07T17:05:15;2.85;;;1.23;;
56541;SDS011;42438;53.174;6.730;2022-12-07T17:07:46;4.43;;;1.10;;
56541;SDS011;42438;53.174;6.730;2022-12-07T17:10:17;3.63;;;1.30;;
56541;SDS011;42438;53.174;6.730;2022-12-07T17:12:48;4.30;;;1.25;;
56541;SDS011;42438;53.174;6.730;2022-12-07T17:15:19;2.78;;;1.38;;
56541;SDS011;42438;53.174;6.730;2022-12-07T17:17:53;3.53;;;1.05;;
56541;SDS011;42438;53.174;6.730;2022-12-07T17:22:56;4.43;;;1.50;;
56541;SDS011;42438;53.174;6.730;2022-12-07T17:25:27;3.25;;;1.38;;
56541;SDS011;42438;53.174;6.730;2022-12-07T17:27:58;7.85;;;2.45;;
56541;SDS011;42438;53.174;6.730;2022-12-07T17:30:29;7.20;;;2.53;;
56541;SDS011;42438;53.174;6.730;2022-12-07T17:33:01;5.60;;;2.03;;
56541;SDS011;42438;53.174;6.730;2022-12-07T17:35:31;4.38;;;1.60;;
56541;SDS011;42438;53.174;6.730;2022-12-07T17:38:02;4.15;;;1.35;;
56541;SDS011;42438;53.174;6.730;2022-12-07T17:40:33;4.50;;;1.55;;
56541;SDS011;42438;53.174;6.730;2022-12-07T17:43:03;2.60;;;1.17;;
56541;SDS011;42438;53.174;6.730;2022-12-07T17:45:35;3.25;;;1.52;;
56541;SDS011;42438;53.174;6.730;2022-12-07T17:48:07;3.40;;;1.40;;
56541;SDS011;42438;53.174;6.730;2022-12-07T17:50:38;4.53;;;1.83;;
56541;SDS011;42438;53.174;6.730;2022-12-07T17:53:27;4.22;;;1.83;;
56541;SDS011;42438;53.174;6.730;2022-12-07T17:55:58;3.97;;;1.48;;
56541;SDS011;42438;53.174;6.730;2022-12-07T17:58:29;4.60;;;2.00;;
56541;SDS011;42438;53.174;6.730;2022-12-07T18:01:00;3.58;;;1.60;;
56541;SDS011;42438;53.174;6.730;2022-12-07T18:03:30;4.68;;;2.15;;